createdAt,value
2018-06-23T00:02:02.589Z,24.00
2018-06-23T00:04:32.392Z,24.00
2018-06-23T00:07:02.129Z,24.00
2018-06-23T00:09:31.823Z,24.00
2018-06-23T00:12:01.519Z,24.00
2018-06-23T00:14:31.271Z,24.00
2018-06-23T00:17:01.067Z,24.00
2018-06-23T00:19:30.929Z,24.00
2018-06-23T00:22:00.759Z,23.90
2018-06-23T00:24:30.532Z,23.90
2018-06-23T00:27:00.188Z,23.90
2018-06-23T00:29:30.121Z,23.90
2018-06-23T00:31:59.968Z,23.90
2018-06-23T00:34:29.754Z,23.90
2018-06-23T00:36:59.501Z,23.90
2018-06-23T00:39:29.326Z,23.90
2018-06-23T00:41:59.013Z,23.90
2018-06-23T00:44:28.846Z,23.90
2018-06-23T00:46:58.575Z,23.90
2018-06-23T00:49:28.384Z,23.90
2018-06-23T00:51:58.185Z,23.90
2018-06-23T00:54:27.928Z,23.90
2018-06-23T00:56:57.691Z,23.90
2018-06-23T00:59:40.543Z,23.90
2018-06-23T01:04:39.481Z,23.90
2018-06-23T01:07:10.552Z,23.90
2018-06-23T01:09:40.426Z,23.90
2018-06-23T01:12:10.151Z,23.90
2018-06-23T01:14:39.993Z,23.90
2018-06-23T01:17:10.895Z,23.90
2018-06-23T01:19:40.805Z,23.90
2018-06-23T01:22:10.438Z,23.90
2018-06-23T01:24:40.262Z,23.90
2018-06-23T01:27:10.182Z,23.90
2018-06-23T01:29:39.931Z,23.90
2018-06-23T01:32:09.618Z,23.90
2018-06-23T01:34:39.375Z,23.90
2018-06-23T01:37:09.068Z,23.90
2018-06-23T01:39:38.762Z,23.90
2018-06-23T01:42:08.404Z,23.90
2018-06-23T01:44:38.083Z,23.90
2018-06-23T01:49:37.010Z,23.90
2018-06-23T01:52:06.788Z,23.90
2018-06-23T01:54:36.464Z,23.90
2018-06-23T01:57:06.422Z,23.90
2018-06-23T01:59:36.078Z,23.90
2018-06-23T02:02:05.739Z,23.90
2018-06-23T02:04:35.385Z,23.90
2018-06-23T02:07:05.034Z,23.90
2018-06-23T02:09:34.701Z,23.90
2018-06-23T02:12:04.437Z,23.90
2018-06-23T02:14:39.029Z,23.90
2018-06-23T02:17:13.715Z,23.90
2018-06-23T02:23:24.243Z,23.90
2018-06-23T02:25:58.916Z,23.80
2018-06-23T02:28:33.659Z,23.80
2018-06-23T02:32:08.126Z,23.80
2018-06-23T02:34:42.807Z,23.80
2018-06-23T02:37:12.501Z,23.70
2018-06-23T02:39:42.148Z,23.70
2018-06-23T02:42:11.826Z,23.70
2018-06-23T02:44:41.505Z,23.70
2018-06-23T02:47:11.208Z,23.70
2018-06-23T02:49:40.890Z,23.70
2018-06-23T02:52:10.680Z,23.80
2018-06-23T02:54:40.362Z,23.80
2018-06-23T02:57:10.102Z,23.80
2018-06-23T02:59:39.809Z,23.80
2018-06-23T03:02:09.626Z,23.80
2018-06-23T03:04:39.305Z,23.80
2018-06-23T03:07:09.085Z,23.80
2018-06-23T03:09:38.797Z,23.80
2018-06-23T03:12:08.616Z,23.80
2018-06-23T03:14:38.293Z,23.80
2018-06-23T03:17:13.019Z,23.80
2018-06-23T03:19:42.726Z,23.80
2018-06-23T03:22:12.524Z,23.80
2018-06-23T03:24:42.298Z,23.80
2018-06-23T03:27:12.047Z,23.80
2018-06-23T03:29:41.903Z,23.80
2018-06-23T03:32:12.248Z,23.80
2018-06-23T03:34:41.894Z,23.80
2018-06-23T03:37:11.605Z,23.80
2018-06-23T03:39:41.298Z,23.80
2018-06-23T03:42:11.043Z,23.80
2018-06-23T03:44:40.702Z,23.80
2018-06-23T03:47:10.422Z,23.80
2018-06-23T03:49:40.100Z,23.80
2018-06-23T03:52:09.827Z,23.80
2018-06-23T03:54:39.486Z,23.80
2018-06-23T03:57:09.225Z,23.80
2018-06-23T03:59:39.054Z,23.80
2018-06-23T04:02:08.744Z,23.80
2018-06-23T04:04:38.414Z,23.80
2018-06-23T04:07:08.149Z,23.80
2018-06-23T04:09:37.779Z,23.80
2018-06-23T04:12:07.481Z,23.80
2018-06-23T04:14:37.172Z,23.80
2018-06-23T04:17:06.840Z,23.80
2018-06-23T04:19:36.549Z,23.80
2018-06-23T04:22:06.429Z,23.80
2018-06-23T04:24:36.063Z,23.80
2018-06-23T04:27:05.773Z,23.80
2018-06-23T04:29:35.535Z,23.80
2018-06-23T04:32:05.275Z,23.80
2018-06-23T04:34:34.953Z,23.80
2018-06-23T04:37:04.735Z,23.80
2018-06-23T04:39:34.390Z,23.80
2018-06-23T04:42:04.134Z,23.70
2018-06-23T04:44:33.912Z,23.80
2018-06-23T04:47:03.595Z,23.80
2018-06-23T04:49:33.273Z,23.80
2018-06-23T04:52:03.089Z,23.80
2018-06-23T04:57:01.854Z,23.80
2018-06-23T04:59:31.531Z,23.80
2018-06-23T05:02:01.242Z,23.70
2018-06-23T05:04:30.924Z,23.70
2018-06-23T05:07:00.603Z,23.70
2018-06-23T05:09:30.309Z,23.70
2018-06-23T05:11:59.973Z,23.70
2018-06-23T05:14:29.671Z,23.70
2018-06-23T05:16:59.394Z,23.70
2018-06-23T05:19:29.106Z,23.70
2018-06-23T05:21:58.805Z,23.70
2018-06-23T05:24:28.670Z,23.70
2018-06-23T05:26:58.320Z,23.70
2018-06-23T05:29:27.976Z,23.70
2018-06-23T05:31:57.683Z,23.70
2018-06-23T05:34:27.385Z,23.80
2018-06-23T05:36:57.088Z,23.80
2018-06-23T05:39:26.747Z,23.80
2018-06-23T05:41:56.360Z,23.80
2018-06-23T05:44:26.065Z,23.80
2018-06-23T05:46:55.823Z,23.80
2018-06-23T05:49:25.506Z,23.80
2018-06-23T05:51:55.150Z,23.80
2018-06-23T05:54:24.806Z,23.80
2018-06-23T05:56:54.639Z,23.80
2018-06-23T05:59:24.465Z,23.80
2018-06-23T06:01:54.404Z,23.80
2018-06-23T06:04:24.129Z,23.80
2018-06-23T06:06:53.825Z,23.80
2018-06-23T06:09:23.568Z,23.80
2018-06-23T06:11:53.285Z,23.80
2018-06-23T06:14:23.239Z,23.90
2018-06-23T06:17:26.410Z,23.90
2018-06-23T06:19:57.207Z,23.90
2018-06-23T06:22:29.025Z,23.90
2018-06-23T06:24:58.848Z,23.80
2018-06-23T06:27:28.570Z,23.80
2018-06-23T06:29:59.019Z,23.90
2018-06-23T06:32:29.108Z,23.80
2018-06-23T06:34:59.164Z,23.90
2018-06-23T06:37:28.828Z,23.90
2018-06-23T06:39:58.569Z,23.90
2018-06-23T06:42:28.257Z,23.90
2018-06-23T06:44:57.939Z,23.90
2018-06-23T06:47:27.601Z,23.90
2018-06-23T06:49:57.278Z,23.90
2018-06-23T06:52:26.924Z,23.90
2018-06-23T06:54:56.621Z,23.90
2018-06-23T06:57:26.296Z,23.90
2018-06-23T06:59:56.011Z,23.90
2018-06-23T07:02:25.882Z,23.90
2018-06-23T07:04:55.613Z,23.90
2018-06-23T07:07:25.341Z,23.90
2018-06-23T07:09:55.033Z,23.90
2018-06-23T07:12:24.734Z,23.90
2018-06-23T07:14:54.438Z,23.90
2018-06-23T07:17:24.165Z,23.90
2018-06-23T07:19:53.878Z,23.90
2018-06-23T07:22:23.549Z,23.90
2018-06-23T07:24:53.250Z,23.90
2018-06-23T07:27:22.940Z,23.90
2018-06-23T07:29:52.629Z,23.90
2018-06-23T07:32:22.273Z,24.00
2018-06-23T07:34:52.026Z,24.00
2018-06-23T07:37:21.724Z,24.00
2018-06-23T07:39:51.399Z,24.00
2018-06-23T07:42:21.093Z,24.00
2018-06-23T07:44:50.789Z,24.10
2018-06-23T07:47:20.457Z,24.10
2018-06-23T07:49:50.107Z,24.10
2018-06-23T07:52:19.994Z,24.10
2018-06-23T07:54:49.794Z,24.10
2018-06-23T07:57:19.440Z,24.10
2018-06-23T07:59:49.231Z,24.10
2018-06-23T08:02:18.917Z,24.10
2018-06-23T08:04:48.794Z,24.10
2018-06-23T08:07:18.476Z,24.10
2018-06-23T08:09:48.235Z,24.10
2018-06-23T08:12:17.908Z,24.10
2018-06-23T08:14:47.662Z,24.10
2018-06-23T08:17:17.451Z,24.10
2018-06-23T08:19:47.217Z,24.10
2018-06-23T08:22:16.856Z,24.10
2018-06-23T08:24:46.613Z,24.10
2018-06-23T08:27:16.361Z,24.10
2018-06-23T08:29:46.195Z,24.10
2018-06-23T08:32:15.863Z,24.10
2018-06-23T08:34:45.621Z,24.10
2018-06-23T08:37:15.366Z,24.10
2018-06-23T08:39:45.108Z,24.10
2018-06-23T08:42:14.802Z,24.10
2018-06-23T08:44:44.529Z,24.10
2018-06-23T08:47:14.181Z,24.10
2018-06-23T08:49:43.894Z,24.10
2018-06-23T08:52:14.133Z,24.10
2018-06-23T08:54:44.777Z,24.10
2018-06-23T08:57:16.027Z,24.10
2018-06-23T08:59:47.592Z,24.10
2018-06-23T09:02:18.052Z,24.10
2018-06-23T09:04:47.769Z,24.10
2018-06-23T09:07:17.718Z,24.10
2018-06-23T09:09:48.479Z,24.10
2018-06-23T09:12:18.365Z,24.10
2018-06-23T09:14:48.132Z,24.10
2018-06-23T09:17:18.152Z,24.10
2018-06-23T09:19:47.806Z,24.10
2018-06-23T09:22:17.527Z,24.10
2018-06-23T09:24:47.258Z,24.10
2018-06-23T09:27:17.009Z,24.10
2018-06-23T09:29:47.789Z,24.10
2018-06-23T09:32:17.458Z,24.10
2018-06-23T09:34:47.126Z,24.10
2018-06-23T09:37:16.878Z,24.10
2018-06-23T09:39:50.614Z,24.00
2018-06-23T09:42:20.276Z,24.10
2018-06-23T09:44:51.065Z,24.10
2018-06-23T09:47:22.447Z,24.00
2018-06-23T09:49:53.101Z,24.10
2018-06-23T09:52:22.787Z,24.10
2018-06-23T09:54:53.322Z,24.10
2018-06-23T09:57:23.276Z,24.10
2018-06-23T09:59:53.011Z,24.10
2018-06-23T10:02:23.663Z,24.10
2018-06-23T10:04:54.617Z,24.10
2018-06-23T10:07:24.359Z,24.10
2018-06-23T10:09:54.523Z,24.10
2018-06-23T10:12:25.203Z,24.10
2018-06-23T10:14:56.964Z,24.10
2018-06-23T10:17:29.672Z,24.10
2018-06-23T10:20:00.790Z,24.10
2018-06-23T10:22:30.968Z,24.10
2018-06-23T10:25:00.821Z,24.10
2018-06-23T10:27:30.809Z,24.10
2018-06-23T10:30:00.777Z,24.10
2018-06-23T10:32:30.919Z,24.10
2018-06-23T10:35:02.073Z,24.10
2018-06-23T10:37:32.723Z,24.10
2018-06-23T10:40:03.416Z,24.10
2018-06-23T10:42:33.775Z,24.10
2018-06-23T10:45:03.570Z,24.10
2018-06-23T10:47:33.264Z,24.10
2018-06-23T10:50:02.958Z,24.10
2018-06-23T10:52:32.654Z,24.10
2018-06-23T10:55:02.493Z,24.10
2018-06-23T10:57:32.285Z,24.10
2018-06-23T11:00:01.952Z,24.10
2018-06-23T11:02:31.695Z,24.10
2018-06-23T11:05:01.408Z,24.10
2018-06-23T11:07:31.172Z,24.10
2018-06-23T11:10:00.841Z,24.10
2018-06-23T11:12:30.887Z,24.10
2018-06-23T11:15:02.464Z,24.10
2018-06-23T11:17:32.896Z,24.10
2018-06-23T11:20:02.590Z,24.10
2018-06-23T11:22:34.548Z,24.10
2018-06-23T11:25:04.951Z,24.10
2018-06-23T11:27:34.772Z,24.10
2018-06-23T11:30:06.251Z,24.10
2018-06-23T11:32:36.236Z,24.10
2018-06-23T11:35:06.213Z,24.10
2018-06-23T11:37:36.083Z,24.10
2018-06-23T11:40:06.604Z,24.10
2018-06-23T11:42:36.369Z,24.10
2018-06-23T11:45:06.089Z,24.10
2018-06-23T11:47:35.761Z,24.10
2018-06-23T11:50:05.533Z,24.10
2018-06-23T11:52:35.304Z,24.10
2018-06-23T11:55:05.397Z,24.10
2018-06-23T11:57:38.755Z,24.10
2018-06-23T12:00:09.016Z,24.10
2018-06-23T12:02:39.447Z,24.10
2018-06-23T12:05:10.087Z,24.10
2018-06-23T12:07:40.215Z,24.10
2018-06-23T12:10:10.790Z,24.10
2018-06-23T12:12:41.053Z,24.10
2018-06-23T12:15:10.770Z,24.10
2018-06-23T12:17:40.554Z,24.10
2018-06-23T12:22:39.349Z,24.10
2018-06-23T12:25:09.138Z,24.10
2018-06-23T12:27:38.938Z,24.10
2018-06-23T12:30:08.777Z,24.10
2018-06-23T12:32:38.552Z,24.10
2018-06-23T12:35:08.267Z,24.10
2018-06-23T12:37:38.034Z,24.10
2018-06-23T12:42:36.909Z,24.10
2018-06-23T12:45:06.840Z,24.10
2018-06-23T12:47:36.592Z,24.10
2018-06-23T12:50:08.626Z,24.10
2018-06-23T12:52:38.409Z,24.10
2018-06-23T12:55:09.476Z,24.10
2018-06-23T12:57:39.225Z,24.00
2018-06-23T13:00:08.983Z,24.00
2018-06-23T13:02:38.749Z,24.10
2018-06-23T13:05:08.429Z,24.00
2018-06-23T13:07:38.559Z,24.00
2018-06-23T13:10:08.236Z,24.00
2018-06-23T13:12:37.991Z,24.00
2018-06-23T13:15:08.328Z,24.00
2018-06-23T13:17:38.157Z,24.00
2018-06-23T13:20:07.849Z,24.00
2018-06-23T13:22:38.193Z,24.00
2018-06-23T13:25:07.890Z,24.00
2018-06-23T13:27:37.617Z,24.00
2018-06-23T13:30:07.325Z,24.10
2018-06-23T13:32:37.084Z,24.00
2018-06-23T13:35:06.756Z,24.00
2018-06-23T13:37:36.458Z,24.00
2018-06-23T13:40:06.244Z,24.00
2018-06-23T13:42:35.922Z,24.00
2018-06-23T13:45:05.874Z,24.00
2018-06-23T13:47:35.871Z,24.10
2018-06-23T13:50:05.859Z,24.00
2018-06-23T13:52:35.743Z,23.90
2018-06-23T13:55:05.623Z,23.90
2018-06-23T13:57:36.524Z,23.90
2018-06-23T14:02:36.443Z,23.80
2018-06-23T14:05:06.623Z,23.80
2018-06-23T14:07:36.723Z,23.80
2018-06-23T14:10:07.664Z,23.90
2018-06-23T14:12:37.657Z,23.90
2018-06-23T14:15:08.057Z,23.90
2018-06-23T14:17:38.041Z,24.00
2018-06-23T14:20:08.254Z,24.00
2018-06-23T14:22:37.953Z,24.00
2018-06-23T14:25:07.600Z,24.00
2018-06-23T14:27:37.306Z,24.00
2018-06-23T14:30:07.116Z,24.00
2018-06-23T14:32:36.786Z,24.00
2018-06-23T14:35:06.487Z,24.00
2018-06-23T14:37:36.202Z,24.00
2018-06-23T14:40:06.114Z,24.00
2018-06-23T14:42:35.834Z,24.00
2018-06-23T14:45:05.539Z,24.00
2018-06-23T14:47:35.504Z,24.00
2018-06-23T14:50:05.199Z,24.10
2018-06-23T14:52:34.986Z,24.00
2018-06-23T14:55:04.745Z,24.10
2018-06-23T14:57:34.432Z,24.10
2018-06-23T15:00:04.580Z,24.10
2018-06-23T15:02:34.294Z,24.10
2018-06-23T15:05:04.046Z,24.00
2018-06-23T15:07:34.450Z,24.10
2018-06-23T15:10:14.994Z,24.10
2018-06-23T15:12:55.417Z,24.10
2018-06-23T15:15:25.209Z,24.00
2018-06-23T15:17:54.992Z,24.10
2018-06-23T15:20:24.859Z,24.00
2018-06-23T15:22:54.670Z,24.10
2018-06-23T15:25:24.463Z,24.00
2018-06-23T15:27:54.314Z,24.10
2018-06-23T15:30:24.237Z,24.10
2018-06-23T15:35:23.277Z,24.10
2018-06-23T15:37:53.333Z,24.10
2018-06-23T15:40:23.289Z,24.00
2018-06-23T15:42:53.066Z,24.10
2018-06-23T15:45:22.923Z,24.10
2018-06-23T15:47:52.729Z,24.00
2018-06-23T15:50:22.501Z,24.10
2018-06-23T15:52:52.470Z,24.10
2018-06-23T15:55:22.506Z,24.00
2018-06-23T15:57:52.476Z,24.00
2018-06-23T16:00:22.610Z,24.10
2018-06-23T16:02:52.805Z,24.10
2018-06-23T16:05:23.388Z,24.10
2018-06-23T16:07:53.219Z,24.00
2018-06-23T16:10:24.735Z,24.00
2018-06-23T16:12:57.266Z,24.00
2018-06-23T16:15:27.258Z,24.00
2018-06-23T16:17:59.733Z,24.00
2018-06-23T16:20:29.591Z,24.00
2018-06-23T16:22:59.553Z,24.00
2018-06-23T16:25:30.574Z,24.00
2018-06-23T16:28:05.545Z,23.90
2018-06-23T16:30:36.775Z,23.80
2018-06-23T16:33:06.482Z,23.70
2018-06-23T16:35:39.062Z,23.60
2018-06-23T16:38:08.936Z,23.50
2018-06-23T16:40:38.713Z,23.40
2018-06-23T16:43:08.388Z,23.30
2018-06-23T16:45:38.535Z,23.30
2018-06-23T16:48:08.176Z,23.30
2018-06-23T16:50:37.994Z,23.30
2018-06-23T16:53:07.706Z,23.30
2018-06-23T16:55:37.470Z,23.40
2018-06-23T16:58:07.168Z,23.40
2018-06-23T17:00:36.908Z,23.50
2018-06-23T17:03:06.615Z,23.60
2018-06-23T17:05:36.349Z,23.60
2018-06-23T17:10:35.214Z,23.70
2018-06-23T17:13:04.897Z,23.70
2018-06-23T17:15:34.635Z,23.70
2018-06-23T17:18:04.302Z,23.70
2018-06-23T17:20:34.063Z,23.70
2018-06-23T17:23:03.888Z,23.70
2018-06-23T17:25:33.663Z,23.70
2018-06-23T17:28:03.336Z,23.70
2018-06-23T17:30:33.067Z,23.70
2018-06-23T17:33:02.755Z,23.70
2018-06-23T17:35:32.485Z,23.70
2018-06-23T17:38:02.153Z,23.70
2018-06-23T17:40:31.925Z,23.70
2018-06-23T17:43:01.616Z,23.80
2018-06-23T17:45:31.394Z,23.80
2018-06-23T17:50:30.256Z,23.90
2018-06-23T17:52:59.936Z,23.90
2018-06-23T17:55:29.597Z,23.90
2018-06-23T17:57:59.396Z,23.90
2018-06-23T18:00:29.136Z,23.90
2018-06-23T18:02:58.792Z,23.90
2018-06-23T18:05:28.559Z,23.90
2018-06-23T18:07:58.424Z,23.90
2018-06-23T18:10:28.409Z,24.00
2018-06-23T18:12:58.117Z,23.90
2018-06-23T18:15:28.305Z,23.90
2018-06-23T18:17:57.523Z,23.90
2018-06-23T18:20:27.272Z,23.90
2018-06-23T18:22:57.069Z,23.90
2018-06-23T18:25:26.801Z,24.00
2018-06-23T18:27:56.520Z,23.90
2018-06-23T18:30:26.256Z,24.00
2018-06-23T18:32:56.013Z,23.90
2018-06-23T18:35:25.659Z,23.90
2018-06-23T18:37:55.409Z,23.90
2018-06-23T18:40:25.462Z,23.90
2018-06-23T18:42:55.172Z,23.90
2018-06-23T18:45:25.079Z,23.90
2018-06-23T18:47:54.878Z,23.90
2018-06-23T18:50:24.568Z,23.90
2018-06-23T18:52:54.322Z,23.90
2018-06-23T18:55:23.962Z,23.90
2018-06-23T18:57:53.700Z,23.90
2018-06-23T19:00:23.460Z,23.90
2018-06-23T19:02:53.234Z,23.90
2018-06-23T19:05:22.907Z,23.90
2018-06-23T19:07:52.960Z,23.80
2018-06-23T19:10:22.629Z,23.80
2018-06-23T19:12:52.293Z,23.80
2018-06-23T19:15:22.395Z,23.80
2018-06-23T19:17:52.033Z,23.80
2018-06-23T19:22:50.834Z,23.90
2018-06-23T19:25:20.494Z,23.90
2018-06-23T19:27:50.196Z,23.90
2018-06-23T19:32:49.520Z,23.90
2018-06-23T19:35:19.574Z,23.90
2018-06-23T19:37:49.504Z,23.90
2018-06-23T19:40:19.400Z,23.80
2018-06-23T19:42:49.276Z,23.90
2018-06-23T19:45:18.938Z,23.90
2018-06-23T19:47:48.607Z,23.90
2018-06-23T19:50:18.264Z,23.80
2018-06-23T19:52:47.953Z,23.90
2018-06-23T19:55:17.861Z,23.90
2018-06-23T19:57:47.943Z,23.80
2018-06-23T20:00:17.877Z,23.90
2018-06-23T20:02:47.636Z,23.90
2018-06-23T20:05:17.343Z,23.90
2018-06-23T20:07:47.077Z,23.90
2018-06-23T20:10:16.798Z,23.90
2018-06-23T20:12:46.579Z,23.90
2018-06-23T20:15:16.318Z,23.90
2018-06-23T20:17:46.064Z,23.90
2018-06-23T20:20:15.738Z,23.90
2018-06-23T20:22:45.397Z,23.90
2018-06-23T20:25:15.064Z,23.90
2018-06-23T20:27:44.730Z,23.90
2018-06-23T20:30:14.465Z,23.80
2018-06-23T20:32:44.150Z,23.80
2018-06-23T20:35:13.846Z,23.90
2018-06-23T20:37:43.537Z,23.80
2018-06-23T20:40:13.212Z,23.80
2018-06-23T20:42:43.067Z,23.80
2018-06-23T20:45:12.976Z,23.80
2018-06-23T20:47:42.806Z,23.80
2018-06-23T20:50:12.620Z,23.80
2018-06-23T20:52:42.449Z,23.80
2018-06-23T20:55:12.163Z,23.80
2018-06-23T20:57:41.810Z,23.80
2018-06-23T21:00:11.569Z,23.80
2018-06-23T21:02:41.411Z,23.80
2018-06-23T21:05:11.394Z,23.80
2018-06-23T21:07:41.106Z,23.80
2018-06-23T21:10:20.432Z,23.80
2018-06-23T21:12:50.884Z,23.80
2018-06-23T21:15:21.965Z,23.90
2018-06-23T21:17:52.909Z,23.90
2018-06-23T21:20:22.788Z,23.90
2018-06-23T21:22:52.515Z,23.90
2018-06-23T21:25:22.187Z,23.90
2018-06-23T21:27:51.862Z,23.90
2018-06-23T21:30:21.598Z,23.90
2018-06-23T21:32:51.775Z,23.90
2018-06-23T21:35:22.814Z,23.90
2018-06-23T21:37:53.035Z,23.90
2018-06-23T21:40:23.950Z,23.90
2018-06-23T21:42:54.073Z,23.90
2018-06-23T21:45:27.788Z,23.90
2018-06-23T21:47:59.045Z,23.90
2018-06-23T21:50:30.153Z,23.90
2018-06-23T21:53:02.045Z,23.90
2018-06-23T21:55:33.255Z,23.90
2018-06-23T21:58:04.618Z,23.80
2018-06-23T22:00:37.747Z,23.90
2018-06-23T22:03:10.510Z,23.90
2018-06-23T22:05:42.196Z,23.90
2018-06-23T22:08:12.586Z,23.90
2018-06-23T22:10:44.434Z,23.90
2018-06-23T22:13:14.186Z,23.90
2018-06-23T22:15:45.710Z,23.90
2018-06-23T22:18:16.220Z,23.90
2018-06-23T22:20:48.560Z,23.90
2018-06-23T22:23:22.126Z,23.90
2018-06-23T22:25:56.104Z,23.90
2018-06-23T22:28:28.637Z,23.90
2018-06-23T22:31:01.202Z,23.90
2018-06-23T22:33:34.092Z,23.90
2018-06-23T22:36:09.578Z,23.90
2018-06-23T22:38:48.255Z,23.90
2018-06-23T22:41:20.320Z,23.80
2018-06-23T22:43:54.634Z,23.80
2018-06-23T22:46:30.832Z,23.80
2018-06-23T22:49:08.720Z,23.80
2018-06-23T22:51:39.766Z,23.80
2018-06-23T22:54:10.438Z,23.80
2018-06-23T22:56:40.662Z,23.80
2018-06-23T22:59:11.071Z,23.70
2018-06-23T23:01:41.684Z,23.70
2018-06-23T23:04:11.447Z,23.70
2018-06-23T23:06:41.202Z,23.70
2018-06-23T23:09:11.556Z,23.70
2018-06-23T23:11:41.352Z,23.70
2018-06-23T23:14:11.054Z,23.70
2018-06-23T23:16:40.787Z,23.70
2018-06-23T23:19:10.520Z,23.70
2018-06-23T23:21:40.333Z,23.70
2018-06-23T23:24:10.068Z,23.70
2018-06-23T23:26:39.933Z,23.70
2018-06-23T23:29:09.679Z,23.70
2018-06-23T23:31:39.409Z,23.70
2018-06-23T23:34:09.103Z,23.70
2018-06-23T23:36:38.869Z,23.70
2018-06-23T23:39:10.486Z,23.70
2018-06-23T23:41:40.240Z,23.70
2018-06-23T23:44:09.956Z,23.70
2018-06-23T23:46:39.731Z,23.70
2018-06-23T23:51:38.549Z,23.70
2018-06-23T23:54:08.215Z,23.70
2018-06-23T23:56:37.950Z,23.60
2018-06-23T23:59:07.638Z,23.60
